Airfield :
LOGIN :

Register | Disclaimer

   EN    FR    IT 

 










Legend :    VFR   Marginal VFR   IFR   Intensive IFR   Very Intensive IFR
Visi :
Ceiling :
>= 8 km
>= 3000ft
5 to 8 km
1000 to 3000 ft
1500m to 5 km
500 to 1000 ft
800 to 1500m
200 to 500 ft
< 800m
< 200 ft
Symbols :   Thunderstorms  Fog  Heavy snow  Heavy precipitations  Wind > 20 kt
SIGMETs :     Misc.  Thunderstorms  Icing  Turbulence  Mountain Waves  Volcanic Ashes







- Airport Elevation : 289 ft


LIRG - Guidonia

CURRENT METAR :
  • 231255Z 22003KT CAVOK 16/03 Q1019 RMK SKC MON NE LIB NC VIS MIN 9999 BLU

EXPIRED METARs :
  • 231155Z VRB01KT CAVOK 14/05 Q1019 RMK SKC MON NE LIB NC VIS MIN 9999 BLU
  • 231055Z 09002KT CAVOK 13/05 Q1019

TAF TAF LIRG
Valid from the 23 at 12:00 until the 23 at 21:00 UTC


231100Z 2312/2321 VRB03KT CAVOK
No reported NOTAMs for that airfield.
1 SIGMET reported for the Roma FIR (LIRR) :
 
Severe turbulence
LIRR SIGMET 4 VALID 231200/231600 LIIB
LIRR ROMA FIR SEV TURB FCST WI N4331 E01324 - N4342 E01119 - N4337 E01022 - N3759 E01019 - N3730 E01131 - N3629 E01129 - N3629 E01336 - N4127 E01422 - N4254 E01304 - N4331 E01324 FL230/390 MOV E NC=



MET'MAP, your aeronautical weather chart ! - Copyright ORBIFLY December 2007 - Disclaimer

ORBIFLY MET'MAP TEAM :

Programming & Development : Alexandra Zaïnal
Concept & Development : Baudouin d'Aumeries
Co-Development & Prog : Marc-Olivier Méhu
Technical & hardware support : Manuel Goepfert

Contact : metmap@orbifly.com




SOURCES & CREDITS :

   NOAA